Flight Track Log - Related Links

Times and Time Zones

All times are in EDT time to prevent confusion due to time zone crossing. See the DAL1979 flight status page for this flight to view local times or setup timezone preferences in your user account.

Time Position Orientation Groundspeed Altitude Reporting Facility
EDT Latitude Longitude Course Direction KTS MPH feet Rate Location/Type
Mon 03:55:52 PM 28.4333 -81.3000 270° West 205 236 600  Level Orlando TRACON
Mon 03:56:27 PM 28.4630 -81.2980 352° North 180 207 1,700 2,100 Climbing FlightAware ADS-B
Mon 03:56:52 PM 28.5000 -81.3000 360° North 216 249 2,700 2,478 Climbing Orlando TRACON
Mon 03:57:59 PM 28.5500 -81.3333 330° Northwest 262 302 5,500 2,557 Climbing Orlando TRACON
Mon 03:58:47 PM 28.5430 -81.3980 312° West 259 298 7,600 3,111 Climbing FlightAware ADS-B
Mon 03:58:53 PM 28.5333 -81.4167 257° West 261 300 8,300 1,881 Climbing Orlando TRACON
Mon 04:01:00 PM 28.7646 -81.5253 270° West  Level Estimated
Mon 04:04:22 PM 28.4800 -81.9920 257° West 392 451 18,100  Level FlightAware ADS-B
Mon 04:05:07 PM 28.4960 -82.0830 281° West 397 457 19,500 1,765 Climbing FlightAware ADS-B
Mon 04:05:47 PM 28.5140 -82.1650 284° West 404 465 20,600 1,482 Climbing FlightAware ADS-B
Mon 04:06:32 PM 28.5330 -82.2560 283° West 409 471 21,600 1,482 Climbing FlightAware ADS-B
Mon 04:07:12 PM 28.5620 -82.3360 292° West 414 476 22,700 1,553 Climbing FlightAware ADS-B
Mon 04:07:57 PM 28.6280 -82.4060 317° Northwest 432 497 23,800 918 Climbing FlightAware ADS-B
Mon 04:08:37 PM 28.6950 -82.4510 329° Northwest 434 499 24,000 150 Climbing FlightAware ADS-B
Mon 04:09:17 PM 28.7650 -82.4960 331° Northwest 436 502 24,000  Level FlightAware ADS-B
Mon 04:10:12 PM 28.8640 -82.5600 330° Northwest 430 495 24,000  Level FlightAware ADS-B
Mon 04:11:12 PM 28.9610 -82.6250 330° Northwest 440 506 24,000  Level FlightAware ADS-B
Mon 04:11:57 PM 29.0410 -82.6780 330° Northwest 443 510 24,000  Level FlightAware ADS-B
Mon 04:12:32 PM 29.1090 -82.7220 331° Northwest 434 499 24,000  Level FlightAware ADS-B
Mon 04:13:47 PM 29.2290 -82.8020 330° Northwest 440 506 24,000  Level FlightAware ADS-B
Mon 04:14:27 PM 29.3010 -82.8500 330° Northwest 431 496 24,000  Level FlightAware ADS-B
Mon 04:15:07 PM 29.3590 -82.8880 330° Northwest 431 496 24,000  Level FlightAware ADS-B
Mon 04:15:47 PM 29.4180 -82.9270 330° Northwest 431 496 24,000  Level FlightAware ADS-B
Mon 04:16:37 PM 29.4920 -82.9760 330° Northwest 431 496 24,000  Level FlightAware ADS-B
Mon 04:17:17 PM 29.5500 -83.0150 330° Northwest 431 496 24,000  Level FlightAware ADS-B
Mon 04:17:57 PM 29.6090 -83.0540 330° Northwest 431 496 24,000 57 Level FlightAware ADS-B
Mon 04:19:03 PM 29.7297 -83.1197 330° Northwest 382 440 24,100 619 Climbing Jacksonville Center
Mon 04:20:03 PM 29.8236 -83.1775 332° Northwest 382 440 25,300 950 Climbing Jacksonville Center
Mon 04:21:03 PM 29.9342 -83.2450 332° Northwest 397 457 26,000 350 Climbing Jacksonville Center
Mon 04:22:03 PM 30.0319 -83.3028 333° Northwest 412 474 26,000  Level Jacksonville Center
Mon 04:23:03 PM 30.1361 -83.3658 332° Northwest 418 481 26,000  Level Jacksonville Center
Mon 04:24:03 PM 30.2425 -83.4311 332° Northwest 423 487 26,000  Level Jacksonville Center
Mon 04:25:03 PM 30.3486 -83.4944 333° Northwest 428 493 26,000  Level Jacksonville Center
Mon 04:26:03 PM 30.4486 -83.5553 332° Northwest 423 487 26,000 -50 Level Jacksonville Center
Mon 04:27:03 PM 30.5422 -83.6139 332° Northwest 400 460 25,900 -650 Descending Jacksonville Center
Mon 04:28:03 PM 30.6442 -83.6772 332° Northwest 387 445 24,700 -950 Descending Jacksonville Center
Mon 04:29:03 PM 30.7481 -83.7411 332° Northwest 392 451 24,000 -350 Descending Jacksonville Center
Mon 04:30:03 PM 30.8394 -83.7950 333° Northwest 399 459 24,000  Level Jacksonville Center
Mon 04:31:03 PM 30.9475 -83.8664 330° Northwest 423 487 24,000  Level Jacksonville Center
Mon 04:32:03 PM 31.0556 -83.9331 332° Northwest 433 498 24,000  Level Jacksonville Center
Mon 04:34:07 PM 31.2875 -84.0778 332° Northwest 427 491 24,000  Level Atlanta Center
Mon 04:35:07 PM 31.3917 -84.1411 333° Northwest 433 498 24,000  Level Atlanta Center
Mon 04:36:08 PM 31.5003 -84.2094 332° Northwest 433 498 24,000  Level Atlanta Center
Mon 04:37:07 PM 31.6025 -84.2753 331° Northwest 433 498 24,000  Level Atlanta Center
Mon 04:38:08 PM 31.6878 -84.3292 332° Northwest 433 498 24,000  Level Atlanta Center
Mon 04:39:07 PM 31.8044 -84.4006 333° Northwest 433 498 24,000  Level Atlanta Center
Mon 04:40:07 PM 31.9086 -84.4719 330° Northwest 433 498 24,000  Level Atlanta Center
Mon 04:41:08 PM 32.0150 -84.5361 333° Northwest 433 498 24,000  Level Atlanta Center
Mon 04:42:07 PM 32.1189 -84.6028 331° Northwest 428 493 24,000  Level Atlanta Center
Mon 04:43:08 PM 32.2250 -84.6697 332° Northwest 428 493 24,000  Level Atlanta Center
Mon 04:44:07 PM 32.3269 -84.7394 330° Northwest 428 493 24,000  Level Atlanta Center
Mon 04:50:22 PM 32.9970 -85.1650 330° Northwest 426 490 24,000  Level FlightAware ADS-B
Mon 04:51:02 PM 33.0560 -85.2040 331° Northwest 426 490 24,000  Level FlightAware ADS-B
Mon 04:51:52 PM 33.1580 -85.2700 332° Northwest 425 489 24,000  Level FlightAware ADS-B
Mon 04:52:27 PM 33.2120 -85.3060 331° Northwest 425 489 24,000  Level FlightAware ADS-B
Mon 04:53:07 PM 33.2760 -85.3490 331° Northwest 425 489 24,000  Level FlightAware ADS-B
Mon 04:53:57 PM 33.3490 -85.3970 331° Northwest 425 489 24,000  Level FlightAware ADS-B
Mon 04:54:37 PM 33.4070 -85.4360 331° Northwest 425 489 24,000  Level FlightAware ADS-B
Mon 04:55:17 PM 33.4660 -85.4750 331° Northwest 425 489 24,000 2,118 Level FlightAware ADS-B
Mon 04:56:02 PM 33.5860 -85.5540 331° Northwest 425 489 27,000 2,400 Climbing FlightAware ADS-B
Mon 04:56:42 PM 33.6480 -85.5970 330° Northwest 422 486 27,400 300 Climbing FlightAware ADS-B
Mon 04:57:22 PM 33.7060 -85.6370 330° Northwest 422 486 27,400  Level FlightAware ADS-B
Mon 04:58:02 PM 33.7630 -85.6770 330° Northwest 422 486 27,400  Level FlightAware ADS-B
Mon 04:58:52 PM 33.8350 -85.7270 330° Northwest 422 486 27,400  Level FlightAware ADS-B
Mon 04:59:32 PM 33.8930 -85.7670 330° Northwest 422 486 27,400 610 Level FlightAware ADS-B
Mon 04:59:51 PM 33.9861 -85.8224 334° Northwest 422 486 28,000 396 Climbing FlightAware ADS-B
Mon 05:01:03 PM 34.1086 -85.9050 331° Northwest 422 486 28,000  Level FlightAware ADS-B
Mon 05:01:36 PM 34.1645 -85.9429 331° Northwest 421 484 28,000  Level FlightAware ADS-B
Mon 05:02:16 PM 34.2332 -85.9895 331° Northwest 421 484 28,000  Level FlightAware ADS-B
Mon 05:02:57 PM 34.3025 -86.0366 331° Northwest 420 483 28,000  Level FlightAware ADS-B
Mon 05:03:27 PM 34.3543 -86.0717 331° Northwest 420 483 28,000  Level FlightAware ADS-B
Mon 05:04:00 PM 34.4088 -86.1088 331° Northwest 419 482 28,000  Level FlightAware ADS-B
Mon 05:04:31 PM 34.4613 -86.1445 331° Northwest 418 481 28,000  Level FlightAware ADS-B
Mon 05:05:03 PM 34.5162 -86.1821 331° Northwest 417 480 28,000  Level FlightAware ADS-B
Mon 05:05:35 PM 34.5703 -86.2190 331° Northwest 416 479 28,000  Level FlightAware ADS-B
Mon 05:06:06 PM 34.6210 -86.2538 331° Northwest 416 479 28,000  Level FlightAware ADS-B
Mon 05:06:37 PM 34.6737 -86.2902 330° Northwest 417 480 28,000 387 Level FlightAware ADS-B
Mon 05:07:08 PM 34.7254 -86.3254 331° Northwest 420 483 28,400 1,082 Climbing FlightAware ADS-B
Mon 05:07:38 PM 34.7763 -86.3603 331° Northwest 418 481 29,100 1,400 Climbing FlightAware ADS-B
Mon 05:08:08 PM 34.8272 -86.3954 330° Northwest 418 481 29,800 900 Climbing FlightAware ADS-B
Mon 05:08:38 PM 34.8780 -86.4302 331° Northwest 420 483 30,000 185 Climbing FlightAware ADS-B
Mon 05:09:13 PM 34.9377 -86.4715 330° Northwest 420 483 30,000  Level FlightAware ADS-B
Mon 05:09:44 PM 34.9898 -86.5075 330° Northwest 420 483 30,000  Level FlightAware ADS-B
Mon 05:10:16 PM 35.0433 -86.5444 331° Northwest 418 481 30,000  Level FlightAware ADS-B
Mon 05:10:46 PM 35.0938 -86.5794 330° Northwest 417 480 30,000  Level FlightAware ADS-B
Mon 05:11:18 PM 35.1473 -86.6164 331° Northwest 416 479 30,000  Level FlightAware ADS-B
Mon 05:11:49 PM 35.2002 -86.6532 330° Northwest 414 476 30,000  Level FlightAware ADS-B
Mon 05:12:20 PM 35.2505 -86.6882 330° Northwest 414 476 30,000  Level FlightAware ADS-B
Mon 05:12:50 PM 35.3017 -86.7238 330° Northwest 414 476 30,000  Level FlightAware ADS-B
Mon 05:13:49 PM 35.3994 -86.7920 330° Northwest 413 475 30,000  Level FlightAware ADS-B
Mon 05:15:52 PM 35.6000 -86.9320 330° Northwest 414 476 30,000  Level FlightAware ADS-B
Mon 05:16:27 PM 35.6550 -86.9710 330° Northwest 415 478 30,000  Level FlightAware ADS-B
Mon 05:17:27 PM 35.7570 -87.0430 330° Northwest 416 479 30,000  Level FlightAware ADS-B
Mon 05:18:07 PM 35.8280 -87.0930 330° Northwest 415 478 30,000  Level FlightAware ADS-B
Mon 05:18:52 PM 35.8930 -87.1390 330° Northwest 415 478 30,000  Level FlightAware ADS-B
Mon 05:19:32 PM 35.9500 -87.1790 330° Northwest 415 478 30,000  Level FlightAware ADS-B
Mon 05:20:17 PM 36.0380 -87.2410 330° Northwest 415 478 30,000  Level FlightAware ADS-B
Mon 05:20:57 PM 36.0950 -87.2820 330° Northwest 415 478 30,000  Level FlightAware ADS-B
Mon 05:21:37 PM 36.1510 -87.3220 330° Northwest 415 478 30,000  Level FlightAware ADS-B
Mon 05:22:17 PM 36.2080 -87.3630 330° Northwest 415 478 30,000  Level FlightAware ADS-B
Mon 05:23:07 PM 36.2780 -87.4130 330° Northwest 415 478 30,000  Level FlightAware ADS-B
Mon 05:23:47 PM 36.3350 -87.4540 330° Northwest 415 478 30,000  Level FlightAware ADS-B
Mon 05:24:27 PM 36.3920 -87.4940 331° Northwest 415 478 30,000  Level FlightAware ADS-B
Mon 05:25:07 PM 36.4480 -87.5350 330° Northwest 415 478 30,000  Level FlightAware ADS-B
Mon 05:25:47 PM 36.5050 -87.5750 331° Northwest 415 478 30,000  Level FlightAware ADS-B
Mon 05:26:37 PM 36.5750 -87.6260 330° Northwest 415 478 30,000  Level FlightAware ADS-B
Mon 05:27:17 PM 36.6320 -87.6670 330° Northwest 415 478 30,000  Level FlightAware ADS-B
Mon 05:27:57 PM 36.6880 -87.7080 330° Northwest 415 478 30,000  Level FlightAware ADS-B
Mon 05:28:37 PM 36.7450 -87.7480 331° Northwest 415 478 30,000  Level FlightAware ADS-B
Mon 05:29:17 PM 36.8010 -87.7890 330° Northwest 415 478 30,000  Level FlightAware ADS-B
Mon 05:30:07 PM 37.0350 -87.9570 330° Northwest 418 481 30,000  Level FlightAware ADS-B
Mon 05:30:47 PM 37.1000 -88.0040 330° Northwest 418 481 30,000  Level FlightAware ADS-B
Mon 05:31:27 PM 37.1680 -88.0540 330° Northwest 417 480 30,000  Level FlightAware ADS-B
Mon 05:32:07 PM 37.2290 -88.0980 330° Northwest 416 479 30,000  Level FlightAware ADS-B
Mon 05:32:52 PM 37.3050 -88.1550 329° Northwest 417 480 30,000  Level FlightAware ADS-B
Mon 05:33:37 PM 37.3830 -88.2120 330° Northwest 417 480 30,000  Level FlightAware ADS-B
Mon 05:34:17 PM 37.4500 -88.2610 330° Northwest 417 480 30,000  Level FlightAware ADS-B
Mon 05:34:57 PM 37.5180 -88.3110 330° Northwest 417 480 30,000  Level FlightAware ADS-B
Mon 05:35:42 PM 37.5900 -88.3650 329° Northwest 417 480 30,000  Level FlightAware ADS-B
Mon 05:36:22 PM 37.6570 -88.4140 330° Northwest 416 479 30,000  Level FlightAware ADS-B
Mon 05:37:07 PM 37.7340 -88.4720 329° Northwest 417 480 30,000  Level FlightAware ADS-B
Mon 05:37:47 PM 37.8010 -88.5210 330° Northwest 418 481 30,000  Level FlightAware ADS-B
Mon 05:38:32 PM 37.8740 -88.5760 329° Northwest 418 481 30,000  Level FlightAware ADS-B
Mon 05:39:12 PM 37.9420 -88.6270 329° Northwest 418 481 30,000  Level FlightAware ADS-B
Mon 05:39:52 PM 38.0090 -88.6770 330° Northwest 418 481 30,000  Level FlightAware ADS-B
Mon 05:40:37 PM 38.0840 -88.7330 330° Northwest 418 481 30,000  Level FlightAware ADS-B
Mon 05:41:17 PM 38.1510 -88.7840 329° Northwest 418 481 30,000  Level FlightAware ADS-B
Mon 05:41:57 PM 38.2190 -88.8360 329° Northwest 419 482 30,000  Level FlightAware ADS-B
Mon 05:42:37 PM 38.2790 -88.8810 330° Northwest 418 481 30,000  Level FlightAware ADS-B
Mon 05:43:22 PM 38.3470 -88.9330 329° Northwest 418 481 30,000  Level FlightAware ADS-B
Mon 05:44:17 PM 38.4490 -89.0100 329° Northwest 417 480 30,000  Level FlightAware ADS-B
Mon 05:44:57 PM 38.5100 -89.0570 329° Northwest 416 479 30,000  Level FlightAware ADS-B
Mon 05:45:42 PM 38.5870 -89.1160 329° Northwest 415 478 30,000  Level FlightAware ADS-B
Mon 05:46:32 PM 38.6680 -89.1790 329° Northwest 415 478 30,000  Level FlightAware ADS-B
Mon 05:47:22 PM 38.7370 -89.2340 328° Northwest 415 478 30,000  Level FlightAware ADS-B
Mon 05:48:02 PM 38.8220 -89.2970 330° Northwest 415 478 30,000  Level FlightAware ADS-B
Mon 05:48:47 PM 38.8970 -89.3550 329° Northwest 416 479 30,000  Level FlightAware ADS-B
Mon 05:49:37 PM 38.9740 -89.4150 329° Northwest 417 480 30,000  Level FlightAware ADS-B
Mon 05:50:17 PM 39.0290 -89.4600 328° Northwest 417 480 30,000  Level FlightAware ADS-B
Mon 05:51:07 PM 39.1280 -89.5350 330° Northwest 416 479 30,000  Level FlightAware ADS-B
Mon 05:51:47 PM 39.1920 -89.5850 329° Northwest 416 479 30,000  Level FlightAware ADS-B
Mon 05:52:22 PM 39.2470 -89.6280 329° Northwest 417 480 30,000  Level FlightAware ADS-B
Mon 05:53:07 PM 39.3140 -89.6820 328° Northwest 417 480 30,000  Level FlightAware ADS-B
Mon 05:53:47 PM 39.3870 -89.7390 329° Northwest 417 480 30,000  Level FlightAware ADS-B
Mon 05:54:37 PM 39.4720 -89.8060 329° Northwest 417 480 30,000  Level FlightAware ADS-B
Mon 05:55:17 PM 39.5350 -89.8560 329° Northwest 417 480 30,000  Level FlightAware ADS-B
Mon 05:55:57 PM 39.5990 -89.9070 328° Northwest 417 480 30,000  Level FlightAware ADS-B
Mon 05:56:42 PM 39.6750 -89.9670 329° Northwest 417 480 30,000  Level FlightAware ADS-B
Mon 05:57:22 PM 39.7450 -90.0240 328° Northwest 419 482 30,000  Level FlightAware ADS-B
Mon 05:58:07 PM 39.8180 -90.0830 328° Northwest 419 482 30,000  Level FlightAware ADS-B
Mon 05:58:47 PM 39.8800 -90.1330 328° Northwest 419 482 30,000  Level FlightAware ADS-B
Mon 05:59:27 PM 39.9480 -90.1870 329° Northwest 420 483 30,000  Level FlightAware ADS-B
Mon 06:00:12 PM 40.0140 -90.2410 328° Northwest 420 483 30,000  Level FlightAware ADS-B
Mon 06:00:52 PM 40.0700 -90.2870 328° Northwest 420 483 30,000  Level FlightAware ADS-B
Mon 06:01:22 PM 40.1390 -90.3430 328° Northwest 420 483 30,000  Level FlightAware ADS-B
Mon 06:02:02 PM 40.2070 -90.3980 328° Northwest 420 483 30,000  Level FlightAware ADS-B
Mon 06:02:42 PM 40.2730 -90.4520 328° Northwest 421 484 30,000  Level FlightAware ADS-B
Mon 06:03:27 PM 40.3450 -90.5110 328° Northwest 420 483 30,000  Level FlightAware ADS-B
Mon 06:04:07 PM 40.4080 -90.5630 328° Northwest 421 484 30,000  Level FlightAware ADS-B
Mon 06:04:52 PM 40.4890 -90.6300 328° Northwest 421 484 30,000  Level FlightAware ADS-B
Mon 06:05:32 PM 40.5520 -90.6830 327° Northwest 421 484 30,000  Level FlightAware ADS-B
Mon 06:06:27 PM 40.6460 -90.7600 328° Northwest 421 484 30,000  Level FlightAware ADS-B
Mon 06:07:12 PM 40.7200 -90.8220 328° Northwest 421 484 30,000  Level FlightAware ADS-B
Mon 06:07:52 PM 40.7810 -90.8730 328° Northwest 421 484 30,000  Level FlightAware ADS-B
Mon 06:08:37 PM 40.8610 -90.9400 328° Northwest 420 483 30,000  Level FlightAware ADS-B
Mon 06:09:12 PM 40.9120 -90.9830 327° Northwest 419 482 30,000  Level FlightAware ADS-B
Mon 06:09:57 PM 40.9850 -91.0450 327° Northwest 418 481 30,000  Level FlightAware ADS-B
Mon 06:10:42 PM 41.0620 -91.1090 328° Northwest 419 482 30,000  Level FlightAware ADS-B
Mon 06:11:22 PM 41.1250 -91.1630 327° Northwest 419 482 30,000  Level FlightAware ADS-B
Mon 06:12:07 PM 41.2020 -91.2290 327° Northwest 420 483 30,000  Level FlightAware ADS-B
Mon 06:12:42 PM 41.2590 -91.2770 328° Northwest 421 484 30,000  Level FlightAware ADS-B
Mon 06:13:32 PM 41.3410 -91.3470 327° Northwest 420 483 30,000  Level FlightAware ADS-B
Mon 06:14:07 PM 41.3990 -91.3960 328° Northwest 420 483 30,000  Level FlightAware ADS-B
Mon 06:14:52 PM 41.4730 -91.4600 327° Northwest 421 484 30,000  Level FlightAware ADS-B
Mon 06:15:37 PM 41.5450 -91.5220 327° Northwest 421 484 30,000  Level FlightAware ADS-B
Mon 06:16:17 PM 41.6130 -91.5810 327° Northwest 422 486 30,000  Level FlightAware ADS-B
Mon 06:16:57 PM 41.6770 -91.6360 327° Northwest 422 486 30,000  Level FlightAware ADS-B
Mon 06:17:42 PM 41.7520 -91.7020 327° Northwest 421 484 30,000  Level FlightAware ADS-B
Mon 06:18:22 PM 41.8160 -91.7570 327° Northwest 421 484 30,000  Level FlightAware ADS-B
Mon 06:19:07 PM 41.8880 -91.8200 327° Northwest 422 486 30,000  Level FlightAware ADS-B
Mon 06:19:47 PM 41.9540 -91.8780 327° Northwest 421 484 30,000  Level FlightAware ADS-B
Mon 06:20:32 PM 42.0290 -91.9440 327° Northwest 421 484 30,000  Level FlightAware ADS-B
Mon 06:21:12 PM 42.0950 -92.0010 327° Northwest 421 484 30,000  Level FlightAware ADS-B
Mon 06:23:07 PM 42.2830 -92.1670 327° Northwest 421 484 30,000  Level FlightAware ADS-B
Mon 06:23:47 PM 42.3460 -92.2240 326° Northwest 420 483 30,000  Level FlightAware ADS-B
Mon 06:24:27 PM 42.4130 -92.2840 327° Northwest 420 483 30,000  Level FlightAware ADS-B
Mon 06:25:12 PM 42.4870 -92.3490 327° Northwest 419 482 30,000  Level FlightAware ADS-B
Mon 06:25:52 PM 42.5500 -92.4070 326° Northwest 419 482 30,000  Level FlightAware ADS-B
Mon 06:26:32 PM 42.6150 -92.4670 326° Northwest 418 481 30,000  Level FlightAware ADS-B
Mon 06:27:17 PM 42.6860 -92.5300 327° Northwest 418 481 30,000  Level FlightAware ADS-B
Mon 06:27:57 PM 42.7520 -92.5910 326° Northwest 419 482 30,000  Level FlightAware ADS-B
Mon 06:28:37 PM 42.8150 -92.6500 326° Northwest 420 483 30,000  Level FlightAware ADS-B
Mon 06:29:22 PM 42.8890 -92.7190 326° Northwest 422 486 30,000  Level FlightAware ADS-B
Mon 06:30:02 PM 42.9530 -92.7790 326° Northwest 423 487 30,000  Level FlightAware ADS-B
Mon 06:30:42 PM 43.0180 -92.8410 325° Northwest 424 488 30,000  Level FlightAware ADS-B
Mon 06:31:27 PM 43.0890 -92.9070 326° Northwest 424 488 30,000  Level FlightAware ADS-B
Mon 06:32:07 PM 43.1550 -92.9690 326° Northwest 424 488 30,000  Level FlightAware ADS-B
Mon 06:32:52 PM 43.2300 -93.0390 326° Northwest 424 488 30,000 -282 Level FlightAware ADS-B
Mon 06:33:32 PM 43.2940 -93.1000 325° Northwest 425 489 29,600 -1,694 Descending FlightAware ADS-B
Mon 06:34:17 PM 43.3640 -93.1670 325° Northwest 423 487 27,600 -2,733 Descending FlightAware ADS-B
Mon 06:35:02 PM 43.4390 -93.2380 326° Northwest 411 473 25,500 -2,612 Descending FlightAware ADS-B
Mon 06:35:42 PM 43.5020 -93.2880 330° Northwest 397 457 23,900 -2,211 Descending FlightAware ADS-B
Mon 06:36:37 PM 43.5990 -93.2940 357° North 378 435 22,000 -2,021 Descending FlightAware ADS-B
Mon 06:37:17 PM 43.6680 -93.2870 North 366 421 20,700 -2,188 Descending FlightAware ADS-B
Mon 06:38:02 PM 43.7470 -93.2780 North 376 433 18,900 -2,400 Descending FlightAware ADS-B
Mon 06:38:42 PM 43.8150 -93.2710 North 372 428 17,300 -2,471 Descending FlightAware ADS-B
Mon 06:39:27 PM 43.8900 -93.2640 North 364 419 15,400 -2,612 Descending FlightAware ADS-B
Mon 06:40:07 PM 43.9590 -93.2570 North 359 413 13,600 -2,550 Descending FlightAware ADS-B
Mon 06:40:47 PM 44.0230 -93.2500 North 353 406 12,000 -2,329 Descending FlightAware ADS-B
Mon 06:41:32 PM 44.0990 -93.2430 North 350 403 10,300 -1,341 Descending FlightAware ADS-B
Mon 06:42:12 PM 44.1630 -93.2360 North 349 402 10,100 -141 Descending FlightAware ADS-B
Mon 06:42:57 PM 44.2350 -93.2280 North 347 399 10,100  Level FlightAware ADS-B
Mon 06:43:37 PM 44.2980 -93.2220 North 347 399 10,100  Level FlightAware ADS-B
Mon 06:44:17 PM 44.3620 -93.2150 North 346 398 10,100  Level FlightAware ADS-B
Mon 06:45:02 PM 44.4370 -93.2070 North 347 399 10,100  Level FlightAware ADS-B
Mon 06:45:42 PM 44.4990 -93.2010 North 346 398 10,100  Level FlightAware ADS-B
Mon 06:46:27 PM 44.5720 -93.1930 North 346 398 10,100  Level FlightAware ADS-B
Mon 06:47:07 PM 44.6330 -93.2000 355° North 307 353 10,100 -300 Level FlightAware ADS-B
Mon 06:47:47 PM 44.6790 -93.2270 337° Northwest 252 290 9,700 -1,114 Descending FlightAware ADS-B
Mon 06:48:17 PM 44.7100 -93.2470 335° Northwest 249 287 8,800 -1,600 Descending FlightAware ADS-B
Mon 06:48:47 PM 44.7430 -93.2680 336° Northwest 259 298 8,100 -764 Descending FlightAware ADS-B
Mon 06:49:12 PM 44.7720 -93.2850 337° Northwest 262 302 8,100  Level FlightAware ADS-B
Mon 06:49:42 PM 44.8020 -93.3100 329° Northwest 247 284 8,100 -600 Level FlightAware ADS-B
Mon 06:50:12 PM 44.8210 -93.3490 304° West 238 274 7,500 -1,636 Descending FlightAware ADS-B
Mon 06:50:37 PM 44.8380 -93.3800 308° West 243 280 6,600 -1,527 Descending FlightAware ADS-B
Mon 06:51:07 PM 44.8600 -93.4170 310° West 241 277 6,100 -545 Descending FlightAware ADS-B
Mon 06:51:32 PM 44.8770 -93.4440 312° West 230 265 6,100  Level FlightAware ADS-B
Mon 06:52:02 PM 44.9040 -93.4720 324° Northwest 245 282 6,100 -700 Level FlightAware ADS-B
Mon 06:52:32 PM 44.9380 -93.4580 16° North 271 312 5,400 -1,350 Descending FlightAware ADS-B
Mon 06:52:42 PM 44.9460 -93.4440 51° Northeast 265 305 5,200 -1,200 Descending FlightAware ADS-B
Mon 06:52:57 PM 44.9500 -93.4240 74° East 245 282 4,900 -1,467 Descending FlightAware ADS-B
Mon 06:53:27 PM 44.9350 -93.3880 120° Southeast 195 224 4,100 -1,418 Descending FlightAware ADS-B
Mon 06:53:52 PM 44.9240 -93.3600 119° Southeast 176 203 3,600 -1,745 Descending FlightAware ADS-B
Mon 06:54:22 PM 44.9110 -93.3320 123° Southeast 169 194 2,500 -1,527 Descending FlightAware ADS-B
Mon 06:54:47 PM 44.9020 -93.3110 121° Southeast 142 163 2,200 -655 Descending FlightAware ADS-B
Mon 06:55:17 PM 44.8920 -93.2870 120° Southeast 144 166 1,900 -700 Descending FlightAware ADS-B
Mon 06:55:47 PM 44.8820 -93.2620 119° Southeast 139 160 1,500 -764 Descending FlightAware ADS-B
Mon 06:56:12 PM 44.8740 -93.2430 121° Southeast 146 168 1,200 -720 Descending FlightAware ADS-B

Login

Don't have an account? Register now (free) for customized features, flight alerts, and more!